createdAt,value
2023-01-05T00:01:34.082Z,3.80
2023-01-05T00:04:02.029Z,1.97
2023-01-05T00:06:30.127Z,1.77
2023-01-05T00:08:59.127Z,2.80
2023-01-05T00:11:46.520Z,1.30
2023-01-05T00:14:34.481Z,3.30
2023-01-05T00:17:21.438Z,1.40
2023-01-05T00:20:07.706Z,1.97
2023-01-05T00:22:39.653Z,5.17
2023-01-05T00:25:12.944Z,3.83
2023-01-05T00:27:42.177Z,1.70
2023-01-05T00:30:14.162Z,2.63
2023-01-05T00:32:42.546Z,1.70
2023-01-05T00:35:11.053Z,2.87
2023-01-05T00:37:39.670Z,3.97
2023-01-05T00:40:08.617Z,3.60
2023-01-05T00:42:36.635Z,4.27
2023-01-05T00:45:05.152Z,6.50
2023-01-05T00:47:33.077Z,3.43
2023-01-05T00:50:00.923Z,4.37
2023-01-05T00:52:29.263Z,6.53
2023-01-05T00:54:56.947Z,3.23
2023-01-05T00:57:24.880Z,3.03
2023-01-05T00:59:54.484Z,10.40
2023-01-05T01:02:22.636Z,6.33
2023-01-05T01:04:50.484Z,3.80
2023-01-05T01:07:18.447Z,11.00
2023-01-05T01:09:46.271Z,8.40
2023-01-05T01:12:14.267Z,6.50
2023-01-05T01:14:41.978Z,3.63
2023-01-05T01:17:09.961Z,4.43
2023-01-05T01:19:37.768Z,6.47
2023-01-05T01:22:05.901Z,10.63
2023-01-05T01:24:34.005Z,5.10
2023-01-05T01:27:02.080Z,5.87
2023-01-05T01:29:29.971Z,6.90
2023-01-05T01:31:58.021Z,5.63
2023-01-05T01:34:25.698Z,7.33
2023-01-05T01:36:55.711Z,8.67
2023-01-05T01:39:26.760Z,5.90
2023-01-05T01:42:00.567Z,11.37
2023-01-05T01:44:46.459Z,10.47
2023-01-05T01:47:16.318Z,10.23
2023-01-05T01:49:44.220Z,7.20
2023-01-05T01:52:12.518Z,5.33
2023-01-05T01:54:40.439Z,4.43
2023-01-05T01:57:11.506Z,4.70
2023-01-05T01:59:39.686Z,8.67
2023-01-05T02:02:08.687Z,8.00
2023-01-05T02:04:37.738Z,6.80
2023-01-05T02:07:06.443Z,6.43
2023-01-05T02:09:34.224Z,4.83
2023-01-05T02:12:07.202Z,5.63
2023-01-05T02:14:35.076Z,6.30
2023-01-05T02:17:12.250Z,3.53
2023-01-05T02:19:42.736Z,5.20
2023-01-05T02:22:15.658Z,4.70
2023-01-05T02:24:46.406Z,6.50
2023-01-05T02:27:27.611Z,6.80
2023-01-05T02:29:58.679Z,4.03
2023-01-05T02:32:31.588Z,8.07
2023-01-05T02:35:06.656Z,8.23
2023-01-05T02:37:39.760Z,4.33
2023-01-05T02:40:11.700Z,6.67
2023-01-05T02:42:41.282Z,4.83
2023-01-05T02:45:10.089Z,5.80
2023-01-05T02:47:41.340Z,3.33
2023-01-05T02:50:16.283Z,6.37
2023-01-05T02:52:51.968Z,6.17
2023-01-05T02:55:22.966Z,7.47
2023-01-05T02:57:56.752Z,5.17
2023-01-05T03:01:17.763Z,6.93
2023-01-05T03:03:54.379Z,8.33
2023-01-05T03:06:22.085Z,9.87
2023-01-05T03:08:52.690Z,5.30
2023-01-05T03:11:41.442Z,8.07
2023-01-05T03:14:13.468Z,5.43
2023-01-05T03:16:41.120Z,7.00
2023-01-05T03:19:31.571Z,5.63
2023-01-05T03:22:19.600Z,8.20
2023-01-05T03:25:07.138Z,9.10
2023-01-05T03:27:56.730Z,10.13
2023-01-05T03:30:46.823Z,5.83
2023-01-05T03:33:43.129Z,5.77
2023-01-05T03:36:13.547Z,9.87
2023-01-05T03:38:44.871Z,5.70
2023-01-05T03:41:16.098Z,7.00
2023-01-05T03:43:44.779Z,8.17
2023-01-05T03:46:15.221Z,7.73
2023-01-05T03:48:44.160Z,9.47
2023-01-05T03:51:12.400Z,5.23
2023-01-05T03:53:41.358Z,10.03
2023-01-05T03:56:09.531Z,9.10
2023-01-05T03:58:37.252Z,9.53
2023-01-05T04:01:05.541Z,8.63
2023-01-05T04:03:33.809Z,5.50
2023-01-05T04:06:04.832Z,12.10
2023-01-05T04:08:34.494Z,8.97
2023-01-05T04:11:18.596Z,5.00
2023-01-05T04:14:07.067Z,6.93
2023-01-05T04:16:36.420Z,7.63
2023-01-05T04:19:18.830Z,5.27
2023-01-05T04:21:47.202Z,6.07
2023-01-05T04:24:15.185Z,6.03
2023-01-05T04:26:45.622Z,5.70
2023-01-05T04:29:13.915Z,5.97
2023-01-05T04:31:45.337Z,6.93
2023-01-05T04:34:14.481Z,7.03
2023-01-05T04:36:43.673Z,6.10
2023-01-05T04:39:16.843Z,5.03
2023-01-05T04:41:45.014Z,3.97
2023-01-05T04:44:14.061Z,6.90
2023-01-05T04:46:42.691Z,4.93
2023-01-05T04:49:12.388Z,10.70
2023-01-05T04:51:42.230Z,6.37
2023-01-05T04:54:10.765Z,5.00
2023-01-05T04:56:39.969Z,4.33
2023-01-05T04:59:09.302Z,6.27
2023-01-05T05:01:38.414Z,5.87
2023-01-05T05:04:10.529Z,4.40
2023-01-05T05:06:38.621Z,3.57
2023-01-05T05:09:07.169Z,4.80
2023-01-05T05:11:37.347Z,5.17
2023-01-05T05:14:05.120Z,5.70
2023-01-05T05:16:33.561Z,4.37
2023-01-05T05:19:02.123Z,6.90
2023-01-05T05:21:30.500Z,9.43
2023-01-05T05:23:58.537Z,6.43
2023-01-05T05:26:26.553Z,2.37
2023-01-05T05:28:55.331Z,6.93
2023-01-05T05:31:23.332Z,6.63
2023-01-05T05:33:51.028Z,6.63
2023-01-05T05:36:19.024Z,4.00
2023-01-05T05:38:46.953Z,7.03
2023-01-05T05:41:14.948Z,3.27
2023-01-05T05:43:42.747Z,4.30
2023-01-05T05:46:10.776Z,5.20
2023-01-05T05:48:38.462Z,5.70
2023-01-05T05:51:06.490Z,2.73
2023-01-05T05:53:34.170Z,4.17
2023-01-05T05:56:02.249Z,6.90
2023-01-05T05:58:29.889Z,5.27
2023-01-05T06:00:59.599Z,3.30
2023-01-05T06:03:27.493Z,8.50
2023-01-05T06:05:55.801Z,6.67
2023-01-05T06:08:24.169Z,12.13
2023-01-05T06:10:52.216Z,7.43
2023-01-05T06:13:20.088Z,11.87
2023-01-05T06:15:48.244Z,7.83
2023-01-05T06:18:15.907Z,4.57
2023-01-05T06:20:44.259Z,9.53
2023-01-05T06:23:12.110Z,8.87
2023-01-05T06:25:40.166Z,16.07
2023-01-05T06:28:07.864Z,8.57
2023-01-05T06:30:35.890Z,16.93
2023-01-05T06:33:03.679Z,29.33
2023-01-05T06:35:31.896Z,35.60
2023-01-05T06:37:59.562Z,36.80
2023-01-05T06:40:27.528Z,31.87
2023-01-05T06:42:55.215Z,37.13
2023-01-05T06:45:23.361Z,43.73
2023-01-05T06:47:51.117Z,37.03
2023-01-05T06:50:19.292Z,17.53
2023-01-05T06:52:46.996Z,22.43
2023-01-05T06:55:15.064Z,29.17
2023-01-05T06:57:42.837Z,23.87
2023-01-05T07:00:12.224Z,71.77
2023-01-05T07:02:40.000Z,84.60
2023-01-05T07:05:08.258Z,55.73
2023-01-05T07:07:37.440Z,43.30
2023-01-05T07:10:05.573Z,41.80
2023-01-05T07:12:33.839Z,34.00
2023-01-05T07:15:01.773Z,19.53
2023-01-05T07:17:29.583Z,28.63
2023-01-05T07:19:57.540Z,18.67
2023-01-05T07:22:25.268Z,17.37
2023-01-05T07:24:53.250Z,11.60
2023-01-05T07:27:21.797Z,17.20
2023-01-05T07:29:50.026Z,15.90
2023-01-05T07:32:17.895Z,13.63
2023-01-05T07:34:54.889Z,7.60
2023-01-05T07:37:25.262Z,9.00
2023-01-05T07:39:53.670Z,14.53
2023-01-05T07:42:21.372Z,11.73
2023-01-05T07:44:52.532Z,15.73
2023-01-05T07:47:20.374Z,10.17
2023-01-05T07:49:48.385Z,8.00
2023-01-05T07:52:17.291Z,16.43
2023-01-05T07:54:45.525Z,10.23
2023-01-05T07:57:13.293Z,12.67
2023-01-05T07:59:41.378Z,10.27
2023-01-05T08:02:10.950Z,17.97
2023-01-05T08:04:39.227Z,9.50
2023-01-05T08:07:11.344Z,9.43
2023-01-05T08:09:58.340Z,9.27
2023-01-05T08:12:26.339Z,13.23
2023-01-05T08:14:57.416Z,19.00
2023-01-05T08:17:25.260Z,12.17
2023-01-05T08:19:53.663Z,14.33
2023-01-05T08:22:21.668Z,13.33
2023-01-05T08:24:50.242Z,15.00
2023-01-05T08:27:18.043Z,15.43
2023-01-05T08:29:46.284Z,17.67
2023-01-05T08:32:14.639Z,8.37
2023-01-05T08:34:43.362Z,16.10
2023-01-05T08:37:11.483Z,20.43
2023-01-05T08:39:39.640Z,21.27
2023-01-05T08:42:07.523Z,15.17
2023-01-05T08:44:35.786Z,11.77
2023-01-05T08:47:03.791Z,13.27
2023-01-05T08:49:32.223Z,8.00
2023-01-05T08:52:00.164Z,9.30
2023-01-05T08:54:28.369Z,12.53
2023-01-05T08:56:56.595Z,18.83
2023-01-05T08:59:24.917Z,10.33
2023-01-05T09:01:53.680Z,9.90
2023-01-05T09:04:22.599Z,10.40
2023-01-05T09:06:51.104Z,6.80
2023-01-05T09:09:19.333Z,8.97
2023-01-05T09:11:47.369Z,6.77
2023-01-05T09:14:16.351Z,11.30
2023-01-05T09:19:33.048Z,7.57
2023-01-05T09:22:00.927Z,8.60
2023-01-05T09:24:29.507Z,10.10
2023-01-05T09:26:57.820Z,9.73
2023-01-05T09:29:25.958Z,11.23
2023-01-05T09:31:53.932Z,8.13
2023-01-05T09:34:22.378Z,6.97
2023-01-05T09:36:50.620Z,6.93
2023-01-05T09:39:19.225Z,10.30
2023-01-05T09:41:48.446Z,4.17
2023-01-05T09:44:23.010Z,9.53
2023-01-05T09:46:52.144Z,11.07
2023-01-05T09:49:23.280Z,4.43
2023-01-05T09:51:55.133Z,12.70
2023-01-05T09:54:24.571Z,9.07
2023-01-05T09:57:09.869Z,7.50
2023-01-05T09:59:40.114Z,8.33
2023-01-05T10:02:17.091Z,7.10
2023-01-05T10:04:45.642Z,14.00
2023-01-05T10:07:43.368Z,8.83
2023-01-05T10:10:24.876Z,6.50
2023-01-05T10:13:07.411Z,9.50
2023-01-05T10:15:46.723Z,6.83
2023-01-05T10:18:38.131Z,20.03
2023-01-05T10:21:14.090Z,13.53
2023-01-05T10:23:48.446Z,10.67
2023-01-05T10:27:06.321Z,10.20
2023-01-05T10:29:45.942Z,13.03
2023-01-05T10:32:20.736Z,11.83
2023-01-05T10:34:48.430Z,10.70
2023-01-05T10:37:35.459Z,8.77
2023-01-05T10:40:10.861Z,13.93
2023-01-05T10:42:41.136Z,10.53
2023-01-05T10:45:19.066Z,6.63
2023-01-05T10:47:48.116Z,8.70
2023-01-05T10:50:39.598Z,11.80
2023-01-05T10:53:13.288Z,8.67
2023-01-05T10:55:44.326Z,11.80
2023-01-05T10:58:29.747Z,3.87
2023-01-05T11:01:00.062Z,9.53
2023-01-05T11:04:04.355Z,9.37
2023-01-05T11:06:23.462Z,8.93
2023-01-05T11:08:52.025Z,5.40
2023-01-05T11:11:26.860Z,6.60
2023-01-05T11:13:57.037Z,5.93
2023-01-05T11:16:27.656Z,11.93
2023-01-05T11:18:57.538Z,5.33
2023-01-05T11:21:26.757Z,8.47
2023-01-05T11:23:56.227Z,7.87
2023-01-05T11:26:23.931Z,6.10
2023-01-05T11:29:01.168Z,8.90
2023-01-05T11:31:33.338Z,8.43
2023-01-05T11:34:05.792Z,8.37
2023-01-05T11:36:34.012Z,7.53
2023-01-05T11:39:05.041Z,3.83
2023-01-05T11:41:33.062Z,4.43
2023-01-05T11:44:03.400Z,6.73
2023-01-05T11:46:41.241Z,6.23
2023-01-05T11:49:09.614Z,7.70
2023-01-05T11:51:39.032Z,11.20
2023-01-05T11:54:25.789Z,7.53
2023-01-05T11:57:12.086Z,11.93
2023-01-05T11:59:40.113Z,4.57
2023-01-05T12:02:13.965Z,8.30
2023-01-05T12:04:44.950Z,5.57
2023-01-05T12:07:21.890Z,6.00
2023-01-05T12:09:59.568Z,8.50
2023-01-05T12:12:31.161Z,7.17
2023-01-05T12:14:59.340Z,6.23
2023-01-05T12:17:34.734Z,4.60
2023-01-05T12:20:02.765Z,5.70
2023-01-05T12:22:44.019Z,4.67
2023-01-05T12:25:18.321Z,3.10
2023-01-05T12:27:52.435Z,5.63
2023-01-05T12:36:23.959Z,7.13
2023-01-05T12:38:51.733Z,6.03
2023-01-05T12:41:23.089Z,5.47
2023-01-05T12:43:56.959Z,6.00
2023-01-05T12:46:34.183Z,3.73
2023-01-05T12:49:04.278Z,4.77
2023-01-05T12:51:41.652Z,6.43
2023-01-05T12:54:27.896Z,8.73
2023-01-05T12:56:59.525Z,5.67
2023-01-05T12:59:38.062Z,10.37
2023-01-05T13:02:21.385Z,2.80
2023-01-05T13:04:56.412Z,4.00
2023-01-05T13:07:32.671Z,4.83
2023-01-05T13:10:03.628Z,5.03
2023-01-05T13:12:33.411Z,5.30
2023-01-05T13:15:13.287Z,5.13
2023-01-05T13:17:43.839Z,10.23
2023-01-05T13:20:21.419Z,8.50
2023-01-05T13:22:50.551Z,12.03
2023-01-05T13:25:20.099Z,11.47
2023-01-05T13:27:48.257Z,8.53
2023-01-05T13:30:20.504Z,24.07
2023-01-05T13:32:57.439Z,15.10
2023-01-05T13:36:06.915Z,11.80
2023-01-05T13:38:37.826Z,16.20
2023-01-05T13:41:12.887Z,13.30
2023-01-05T13:43:53.362Z,10.93
2023-01-05T13:46:33.489Z,10.03
2023-01-05T13:49:26.143Z,14.30
2023-01-05T13:51:58.724Z,26.43
2023-01-05T13:54:26.944Z,14.07
2023-01-05T13:56:54.886Z,13.50
2023-01-05T13:59:35.777Z,16.03
2023-01-05T14:02:34.158Z,13.40
2023-01-05T14:05:02.631Z,6.43
2023-01-05T14:07:30.489Z,10.60
2023-01-05T14:09:58.849Z,8.67
2023-01-05T14:12:56.121Z,8.57
2023-01-05T14:15:27.634Z,8.07
2023-01-05T14:17:55.728Z,7.47
2023-01-05T14:20:31.503Z,13.47
2023-01-05T14:22:59.868Z,14.40
2023-01-05T14:25:40.398Z,9.57
2023-01-05T14:28:33.794Z,7.37
2023-01-05T14:31:14.574Z,7.97
2023-01-05T14:33:48.584Z,11.17
2023-01-05T14:36:27.121Z,16.80
2023-01-05T14:38:54.970Z,13.77
2023-01-05T14:41:26.774Z,14.30
2023-01-05T14:43:59.829Z,12.70
2023-01-05T14:46:28.560Z,17.40
2023-01-05T14:49:01.577Z,20.17
2023-01-05T14:51:30.422Z,12.67
2023-01-05T14:53:59.362Z,17.53
2023-01-05T14:56:30.179Z,18.07
2023-01-05T14:59:20.982Z,27.13
2023-01-05T15:01:57.117Z,16.13
2023-01-05T15:04:29.518Z,7.77
2023-01-05T15:07:16.417Z,13.90
2023-01-05T15:10:05.490Z,10.33
2023-01-05T15:12:35.835Z,15.33
2023-01-05T15:15:09.105Z,11.57
2023-01-05T15:17:49.305Z,10.97
2023-01-05T15:20:20.252Z,8.73
2023-01-05T15:22:54.602Z,8.17
2023-01-05T15:25:28.496Z,7.50
2023-01-05T15:28:15.288Z,8.07
2023-01-05T15:30:43.159Z,9.17
2023-01-05T15:33:17.412Z,10.80
2023-01-05T15:35:51.295Z,12.60
2023-01-05T15:38:21.080Z,18.40
2023-01-05T15:40:49.926Z,15.67
2023-01-05T15:43:18.546Z,17.20
2023-01-05T15:45:50.313Z,18.50
2023-01-05T15:48:28.589Z,19.33
2023-01-05T15:50:58.650Z,15.67
2023-01-05T15:53:29.919Z,16.30
2023-01-05T15:55:58.337Z,9.57
2023-01-05T15:58:28.228Z,35.77
2023-01-05T16:01:06.749Z,25.50
2023-01-05T16:03:36.662Z,15.53
2023-01-05T16:06:10.596Z,22.37
2023-01-05T16:08:43.338Z,20.53
2023-01-05T16:11:13.321Z,11.23
2023-01-05T16:13:43.981Z,18.70
2023-01-05T16:16:24.839Z,23.93
2023-01-05T16:19:10.053Z,14.73
2023-01-05T16:21:43.053Z,15.63
2023-01-05T16:24:17.169Z,12.33
2023-01-05T16:26:44.976Z,9.87
2023-01-05T16:29:20.195Z,8.73
2023-01-05T16:31:55.489Z,10.63
2023-01-05T16:34:27.827Z,10.37
2023-01-05T16:37:01.557Z,11.33
2023-01-05T16:39:34.291Z,15.03
2023-01-05T16:42:25.282Z,17.83
2023-01-05T16:44:54.561Z,15.43
2023-01-05T16:47:38.009Z,18.83
2023-01-05T16:50:18.417Z,25.23
2023-01-05T16:52:58.135Z,46.60
2023-01-05T16:55:35.029Z,54.93
2023-01-05T16:58:04.939Z,26.53
2023-01-05T17:00:35.419Z,28.13
2023-01-05T17:03:04.772Z,32.87
2023-01-05T17:05:34.636Z,25.50
2023-01-05T17:08:08.344Z,32.77
2023-01-05T17:10:36.723Z,12.37
2023-01-05T17:13:06.954Z,15.63
2023-01-05T17:15:36.835Z,19.70
2023-01-05T17:18:26.171Z,18.93
2023-01-05T17:20:55.584Z,11.73
2023-01-05T17:23:26.729Z,17.33
2023-01-05T17:25:57.268Z,17.70
2023-01-05T17:28:25.597Z,12.70
2023-01-05T17:30:54.768Z,12.57
2023-01-05T17:33:22.932Z,15.73
2023-01-05T17:35:52.004Z,8.40
2023-01-05T17:38:20.448Z,14.93
2023-01-05T17:40:49.041Z,9.93
2023-01-05T17:43:19.005Z,11.90
2023-01-05T17:45:47.808Z,8.90
2023-01-05T17:48:16.737Z,13.33
2023-01-05T17:50:45.855Z,15.00
2023-01-05T17:53:13.841Z,11.17
2023-01-05T17:55:44.979Z,10.20
2023-01-05T17:58:14.557Z,13.93
2023-01-05T18:03:17.740Z,12.90
2023-01-05T18:05:48.902Z,14.37
2023-01-05T18:08:17.589Z,12.17
2023-01-05T18:10:47.126Z,13.17
2023-01-05T18:13:18.238Z,9.57
2023-01-05T18:15:53.596Z,14.43
2023-01-05T18:18:22.723Z,15.40
2023-01-05T18:20:51.873Z,21.93
2023-01-05T18:23:21.527Z,14.17
2023-01-05T18:25:50.253Z,16.07
2023-01-05T18:28:19.256Z,11.90
2023-01-05T18:30:47.790Z,12.30
2023-01-05T18:33:15.842Z,14.63
2023-01-05T18:35:44.782Z,24.33
2023-01-05T18:38:13.751Z,34.73
2023-01-05T18:40:48.827Z,26.40
2023-01-05T18:43:17.520Z,38.17
2023-01-05T18:45:46.071Z,46.40
2023-01-05T18:48:14.870Z,44.23
2023-01-05T18:50:45.469Z,28.23
2023-01-05T18:53:14.844Z,24.50
2023-01-05T18:55:43.656Z,21.87
2023-01-05T18:58:12.480Z,25.13
2023-01-05T19:00:41.726Z,17.07
2023-01-05T19:03:10.499Z,17.83
2023-01-05T19:05:43.059Z,21.37
2023-01-05T19:08:12.409Z,19.10
2023-01-05T19:10:42.711Z,14.37
2023-01-05T19:13:11.594Z,28.40
2023-01-05T19:15:40.252Z,17.77
2023-01-05T19:18:09.678Z,17.33
2023-01-05T19:20:39.329Z,18.57
2023-01-05T19:23:07.519Z,14.63
2023-01-05T19:25:35.951Z,32.50
2023-01-05T19:28:04.053Z,19.83
2023-01-05T19:30:33.101Z,21.27
2023-01-05T19:33:02.475Z,16.37
2023-01-05T19:35:31.935Z,18.90
2023-01-05T19:38:01.557Z,11.37
2023-01-05T19:40:30.160Z,51.30
2023-01-05T19:42:58.506Z,19.17
2023-01-05T19:45:27.372Z,20.83
2023-01-05T19:47:55.745Z,50.70
2023-01-05T19:50:24.145Z,50.27
2023-01-05T19:52:52.765Z,26.97
2023-01-05T19:55:21.594Z,18.87
2023-01-05T19:57:49.952Z,14.40
2023-01-05T20:00:20.072Z,15.83
2023-01-05T20:02:48.460Z,11.17
2023-01-05T20:05:17.642Z,9.50
2023-01-05T20:07:46.487Z,13.90
2023-01-05T20:10:14.853Z,16.13
2023-01-05T20:12:43.168Z,10.17
2023-01-05T20:15:13.519Z,8.93
2023-01-05T20:17:42.563Z,17.27
2023-01-05T20:20:12.486Z,15.87
2023-01-05T20:22:40.890Z,11.73
2023-01-05T20:25:09.405Z,13.83
2023-01-05T20:27:37.388Z,19.47
2023-01-05T20:30:05.998Z,45.73
2023-01-05T20:32:36.586Z,35.70
2023-01-05T20:35:05.454Z,34.67
2023-01-05T20:37:33.744Z,21.83
2023-01-05T20:40:03.619Z,20.93
2023-01-05T20:42:32.405Z,12.30
2023-01-05T20:45:03.573Z,20.20
2023-01-05T20:47:39.423Z,11.30
2023-01-05T20:50:15.119Z,22.10
2023-01-05T20:52:43.088Z,24.67
2023-01-05T20:55:11.786Z,23.57
2023-01-05T20:57:39.578Z,18.30
2023-01-05T21:00:08.096Z,26.17
2023-01-05T21:02:35.983Z,20.27
2023-01-05T21:05:04.996Z,16.17
2023-01-05T21:07:33.243Z,23.47
2023-01-05T21:10:01.355Z,17.70
2023-01-05T21:12:29.330Z,19.50
2023-01-05T21:14:57.529Z,28.10
2023-01-05T21:17:25.541Z,30.53
2023-01-05T21:19:53.942Z,19.40
2023-01-05T21:22:22.051Z,19.30
2023-01-05T21:24:50.739Z,11.83
2023-01-05T21:27:18.904Z,9.10
2023-01-05T21:29:47.253Z,7.07
2023-01-05T21:32:15.546Z,12.80
2023-01-05T21:34:45.509Z,11.93
2023-01-05T21:37:13.640Z,14.27
2023-01-05T21:39:43.026Z,23.33
2023-01-05T21:42:30.227Z,22.77
2023-01-05T21:44:58.734Z,28.13
2023-01-05T21:47:27.229Z,19.30
2023-01-05T21:49:56.005Z,21.40
2023-01-05T21:52:42.868Z,16.63
2023-01-05T21:55:30.721Z,21.30
2023-01-05T21:57:58.888Z,19.83
2023-01-05T22:00:28.058Z,19.87
2023-01-05T22:02:56.200Z,27.83
2023-01-05T22:05:24.709Z,43.73
2023-01-05T22:07:52.672Z,21.40
2023-01-05T22:10:21.335Z,30.10
2023-01-05T22:12:49.479Z,21.93
2023-01-05T22:15:18.086Z,14.97
2023-01-05T22:17:45.989Z,72.10
2023-01-05T22:20:14.180Z,30.23
2023-01-05T22:22:42.507Z,17.40
2023-01-05T22:25:10.746Z,18.67
2023-01-05T22:27:38.919Z,16.37
2023-01-05T22:30:07.499Z,13.03
2023-01-05T22:32:36.228Z,9.10
2023-01-05T22:35:05.209Z,14.47
2023-01-05T22:37:33.059Z,26.60
2023-01-05T22:40:01.736Z,52.03
2023-01-05T22:42:30.621Z,34.47
2023-01-05T22:44:59.091Z,36.27
2023-01-05T22:47:27.096Z,60.20
2023-01-05T22:49:55.231Z,74.63
2023-01-05T22:52:24.173Z,43.13
2023-01-05T22:54:53.476Z,54.13
2023-01-05T22:57:21.405Z,41.60
2023-01-05T22:59:49.526Z,58.20
2023-01-05T23:02:17.512Z,72.03
2023-01-05T23:04:45.915Z,64.80
2023-01-05T23:07:13.708Z,55.10
2023-01-05T23:09:41.961Z,24.43
2023-01-05T23:12:11.906Z,29.67
2023-01-05T23:14:40.259Z,27.07
2023-01-05T23:17:12.468Z,24.97
2023-01-05T23:19:40.835Z,34.67
2023-01-05T23:22:10.864Z,36.63
2023-01-05T23:24:40.195Z,19.57
2023-01-05T23:27:08.197Z,13.77
2023-01-05T23:29:36.357Z,14.67
2023-01-05T23:32:04.922Z,8.47
2023-01-05T23:34:33.127Z,7.93
2023-01-05T23:37:00.983Z,9.93
2023-01-05T23:39:29.246Z,8.97
2023-01-05T23:41:57.400Z,18.03
2023-01-05T23:44:25.628Z,20.07
2023-01-05T23:46:53.514Z,17.67
2023-01-05T23:49:21.531Z,25.07
2023-01-05T23:51:49.296Z,27.07
2023-01-05T23:54:17.310Z,25.40
2023-01-05T23:56:45.019Z,20.87
2023-01-05T23:59:13.070Z,23.63
